sensor_id;sensor_type;location;lat;lon;timestamp;P1;durP1;ratioP1;P2;durP2;ratioP2
48789;SDS011;41718;51.980;5.734;2022-07-01T00:01:09;10.80;;;9.63;;
48789;SDS011;41718;51.980;5.734;2022-07-01T00:06:11;11.15;;;10.02;;
48789;SDS011;41718;51.980;5.734;2022-07-01T00:11:13;11.73;;;10.63;;
48789;SDS011;41718;51.980;5.734;2022-07-01T00:16:15;12.55;;;10.73;;
48789;SDS011;41718;51.980;5.734;2022-07-01T00:21:16;16.17;;;11.35;;
48789;SDS011;41718;51.980;5.734;2022-07-01T00:26:18;14.23;;;11.50;;
48789;SDS011;41718;51.980;5.734;2022-07-01T00:31:20;13.73;;;12.27;;
48789;SDS011;41718;51.980;5.734;2022-07-01T00:36:21;12.98;;;11.68;;
48789;SDS011;41718;51.980;5.734;2022-07-01T00:41:30;14.05;;;12.65;;
48789;SDS011;41718;51.980;5.734;2022-07-01T00:46:31;15.07;;;13.25;;
48789;SDS011;41718;51.980;5.734;2022-07-01T00:51:34;12.90;;;11.60;;
48789;SDS011;41718;51.980;5.734;2022-07-01T00:56:36;16.90;;;13.10;;
48789;SDS011;41718;51.980;5.734;2022-07-01T01:01:38;17.48;;;15.50;;
48789;SDS011;41718;51.980;5.734;2022-07-01T01:06:40;26.75;;;19.27;;
48789;SDS011;41718;51.980;5.734;2022-07-01T01:11:42;28.33;;;21.40;;
48789;SDS011;41718;51.980;5.734;2022-07-01T01:16:44;25.45;;;21.33;;
48789;SDS011;41718;51.980;5.734;2022-07-01T01:21:46;28.83;;;24.23;;
48789;SDS011;41718;51.980;5.734;2022-07-01T01:26:48;31.23;;;24.85;;
48789;SDS011;41718;51.980;5.734;2022-07-01T01:31:49;34.20;;;27.40;;
48789;SDS011;41718;51.980;5.734;2022-07-01T01:36:51;31.88;;;25.85;;
48789;SDS011;41718;51.980;5.734;2022-07-01T01:41:53;31.10;;;26.15;;
48789;SDS011;41718;51.980;5.734;2022-07-01T01:46:54;33.20;;;27.75;;
48789;SDS011;41718;51.980;5.734;2022-07-01T01:51:56;29.50;;;24.80;;
48789;SDS011;41718;51.980;5.734;2022-07-01T01:56:59;34.80;;;27.30;;
48789;SDS011;41718;51.980;5.734;2022-07-01T02:02:00;33.55;;;25.95;;
48789;SDS011;41718;51.980;5.734;2022-07-01T02:07:02;34.70;;;28.08;;
48789;SDS011;41718;51.980;5.734;2022-07-01T02:12:04;36.10;;;28.02;;
48789;SDS011;41718;51.980;5.734;2022-07-01T02:17:06;31.85;;;27.30;;
48789;SDS011;41718;51.980;5.734;2022-07-01T02:22:07;34.53;;;26.83;;
48789;SDS011;41718;51.980;5.734;2022-07-01T02:27:09;31.13;;;25.75;;
48789;SDS011;41718;51.980;5.734;2022-07-01T02:32:11;30.90;;;25.40;;
48789;SDS011;41718;51.980;5.734;2022-07-01T02:37:12;30.70;;;25.83;;
48789;SDS011;41718;51.980;5.734;2022-07-01T02:42:14;33.13;;;26.15;;
48789;SDS011;41718;51.980;5.734;2022-07-01T02:47:24;31.17;;;26.45;;
48789;SDS011;41718;51.980;5.734;2022-07-01T02:52:32;31.45;;;24.80;;
48789;SDS011;41718;51.980;5.734;2022-07-01T02:57:35;30.70;;;24.67;;
48789;SDS011;41718;51.980;5.734;2022-07-01T03:02:37;31.30;;;24.90;;
48789;SDS011;41718;51.980;5.734;2022-07-01T03:07:39;32.38;;;24.42;;
48789;SDS011;41718;51.980;5.734;2022-07-01T03:12:41;35.55;;;26.63;;
48789;SDS011;41718;51.980;5.734;2022-07-01T03:17:43;30.67;;;26.00;;
48789;SDS011;41718;51.980;5.734;2022-07-01T03:22:47;31.95;;;25.67;;
48789;SDS011;41718;51.980;5.734;2022-07-01T03:27:49;34.75;;;26.60;;
48789;SDS011;41718;51.980;5.734;2022-07-01T03:32:50;31.73;;;24.63;;
48789;SDS011;41718;51.980;5.734;2022-07-01T03:37:52;34.67;;;24.85;;
48789;SDS011;41718;51.980;5.734;2022-07-01T03:42:55;28.85;;;23.17;;
48789;SDS011;41718;51.980;5.734;2022-07-01T03:47:57;36.17;;;25.38;;
48789;SDS011;41718;51.980;5.734;2022-07-01T03:52:59;34.53;;;25.60;;
48789;SDS011;41718;51.980;5.734;2022-07-01T03:58:19;32.90;;;23.83;;
48789;SDS011;41718;51.980;5.734;2022-07-01T04:03:21;30.67;;;21.83;;
48789;SDS011;41718;51.980;5.734;2022-07-01T04:08:22;31.63;;;25.02;;
48789;SDS011;41718;51.980;5.734;2022-07-01T04:13:24;33.75;;;24.13;;
48789;SDS011;41718;51.980;5.734;2022-07-01T04:18:31;34.05;;;25.35;;
48789;SDS011;41718;51.980;5.734;2022-07-01T04:23:33;35.17;;;26.00;;
48789;SDS011;41718;51.980;5.734;2022-07-01T04:28:35;34.60;;;24.05;;
48789;SDS011;41718;51.980;5.734;2022-07-01T04:33:37;32.72;;;24.77;;
48789;SDS011;41718;51.980;5.734;2022-07-01T04:38:38;29.80;;;22.50;;
48789;SDS011;41718;51.980;5.734;2022-07-01T04:43:40;31.83;;;22.92;;
48789;SDS011;41718;51.980;5.734;2022-07-01T04:48:42;29.25;;;22.90;;
48789;SDS011;41718;51.980;5.734;2022-07-01T04:53:44;31.15;;;22.27;;
48789;SDS011;41718;51.980;5.734;2022-07-01T04:58:45;31.65;;;22.90;;
48789;SDS011;41718;51.980;5.734;2022-07-01T05:03:47;33.45;;;23.13;;
48789;SDS011;41718;51.980;5.734;2022-07-01T05:08:50;29.52;;;22.35;;
48789;SDS011;41718;51.980;5.734;2022-07-01T05:13:52;32.95;;;23.73;;
48789;SDS011;41718;51.980;5.734;2022-07-01T05:18:54;30.08;;;23.58;;
48789;SDS011;41718;51.980;5.734;2022-07-01T05:24:14;38.08;;;25.08;;
48789;SDS011;41718;51.980;5.734;2022-07-01T05:29:16;32.45;;;22.80;;
48789;SDS011;41718;51.980;5.734;2022-07-01T05:34:18;36.58;;;23.38;;
48789;SDS011;41718;51.980;5.734;2022-07-01T05:39:22;31.27;;;22.27;;
48789;SDS011;41718;51.980;5.734;2022-07-01T05:44:24;32.05;;;21.08;;
48789;SDS011;41718;51.980;5.734;2022-07-01T05:49:26;31.02;;;21.58;;
48789;SDS011;41718;51.980;5.734;2022-07-01T05:54:28;35.83;;;23.58;;
48789;SDS011;41718;51.980;5.734;2022-07-01T05:59:29;30.42;;;20.50;;
48789;SDS011;41718;51.980;5.734;2022-07-01T06:04:31;30.63;;;21.70;;
48789;SDS011;41718;51.980;5.734;2022-07-01T06:09:32;29.17;;;19.25;;
48789;SDS011;41718;51.980;5.734;2022-07-01T06:14:34;29.90;;;21.05;;
48789;SDS011;41718;51.980;5.734;2022-07-01T06:19:36;37.38;;;22.92;;
48789;SDS011;41718;51.980;5.734;2022-07-01T06:24:40;29.55;;;20.67;;
48789;SDS011;41718;51.980;5.734;2022-07-01T06:29:42;37.03;;;22.50;;
48789;SDS011;41718;51.980;5.734;2022-07-01T06:34:43;33.75;;;22.88;;
48789;SDS011;41718;51.980;5.734;2022-07-01T06:39:45;32.03;;;22.33;;
48789;SDS011;41718;51.980;5.734;2022-07-01T06:44:47;29.02;;;18.50;;
48789;SDS011;41718;51.980;5.734;2022-07-01T06:49:48;31.90;;;19.25;;
48789;SDS011;41718;51.980;5.734;2022-07-01T06:54:54;29.75;;;19.20;;
48789;SDS011;41718;51.980;5.734;2022-07-01T06:59:56;28.50;;;19.70;;
48789;SDS011;41718;51.980;5.734;2022-07-01T07:04:57;23.95;;;16.85;;
48789;SDS011;41718;51.980;5.734;2022-07-01T07:10:02;31.38;;;18.65;;
48789;SDS011;41718;51.980;5.734;2022-07-01T07:15:04;26.42;;;17.50;;
48789;SDS011;41718;51.980;5.734;2022-07-01T07:20:06;24.42;;;15.85;;
48789;SDS011;41718;51.980;5.734;2022-07-01T07:25:08;27.75;;;15.88;;
48789;SDS011;41718;51.980;5.734;2022-07-01T07:30:10;26.98;;;15.60;;
48789;SDS011;41718;51.980;5.734;2022-07-01T07:35:12;24.55;;;14.35;;
48789;SDS011;41718;51.980;5.734;2022-07-01T07:40:14;24.15;;;15.68;;
48789;SDS011;41718;51.980;5.734;2022-07-01T07:45:19;21.10;;;13.33;;
48789;SDS011;41718;51.980;5.734;2022-07-01T07:50:21;19.50;;;11.93;;
48789;SDS011;41718;51.980;5.734;2022-07-01T07:55:24;15.70;;;11.60;;
48789;SDS011;41718;51.980;5.734;2022-07-01T08:00:26;12.10;;;9.27;;
48789;SDS011;41718;51.980;5.734;2022-07-01T08:05:29;14.73;;;8.02;;
48789;SDS011;41718;51.980;5.734;2022-07-01T08:10:31;13.90;;;7.53;;
48789;SDS011;41718;51.980;5.734;2022-07-01T08:15:33;13.07;;;6.25;;
48789;SDS011;41718;51.980;5.734;2022-07-01T08:20:34;6.63;;;4.93;;
48789;SDS011;41718;51.980;5.734;2022-07-01T08:25:36;9.02;;;4.10;;
48789;SDS011;41718;51.980;5.734;2022-07-01T08:30:38;7.15;;;4.75;;
48789;SDS011;41718;51.980;5.734;2022-07-01T08:35:40;5.05;;;3.80;;
48789;SDS011;41718;51.980;5.734;2022-07-01T08:40:42;7.32;;;3.20;;
48789;SDS011;41718;51.980;5.734;2022-07-01T08:45:43;7.18;;;3.45;;
48789;SDS011;41718;51.980;5.734;2022-07-01T08:50:45;6.93;;;3.03;;
48789;SDS011;41718;51.980;5.734;2022-07-01T08:55:47;5.78;;;2.47;;
48789;SDS011;41718;51.980;5.734;2022-07-01T09:01:11;8.88;;;3.35;;
48789;SDS011;41718;51.980;5.734;2022-07-01T09:06:18;9.82;;;2.53;;
48789;SDS011;41718;51.980;5.734;2022-07-01T09:11:22;6.18;;;2.60;;
48789;SDS011;41718;51.980;5.734;2022-07-01T09:16:26;4.78;;;1.70;;
48789;SDS011;41718;51.980;5.734;2022-07-01T09:21:28;4.15;;;1.70;;
48789;SDS011;41718;51.980;5.734;2022-07-01T09:26:31;3.25;;;1.67;;
48789;SDS011;41718;51.980;5.734;2022-07-01T09:31:33;3.50;;;1.33;;
48789;SDS011;41718;51.980;5.734;2022-07-01T09:36:39;2.75;;;1.40;;
48789;SDS011;41718;51.980;5.734;2022-07-01T09:41:41;3.97;;;1.40;;
48789;SDS011;41718;51.980;5.734;2022-07-01T09:46:53;2.78;;;0.93;;
48789;SDS011;41718;51.980;5.734;2022-07-01T09:51:56;5.65;;;1.48;;
48789;SDS011;41718;51.980;5.734;2022-07-01T09:57:08;4.25;;;1.50;;
48789;SDS011;41718;51.980;5.734;2022-07-01T10:02:13;4.03;;;0.93;;
48789;SDS011;41718;51.980;5.734;2022-07-01T10:13:07;1.08;;;0.80;;
48789;SDS011;41718;51.980;5.734;2022-07-01T10:18:18;2.03;;;0.77;;
48789;SDS011;41718;51.980;5.734;2022-07-01T10:23:22;1.45;;;1.23;;
48789;SDS011;41718;51.980;5.734;2022-07-01T10:28:29;2.28;;;0.60;;
48789;SDS011;41718;51.980;5.734;2022-07-01T10:44:09;2.72;;;0.88;;
48789;SDS011;41718;51.980;5.734;2022-07-01T10:49:18;3.17;;;0.90;;
48789;SDS011;41718;51.980;5.734;2022-07-01T11:05:00;1.17;;;0.60;;
48789;SDS011;41718;51.980;5.734;2022-07-01T11:10:10;1.77;;;1.35;;
48789;SDS011;41718;51.980;5.734;2022-07-01T11:15:12;2.03;;;0.70;;
48789;SDS011;41718;51.980;5.734;2022-07-01T11:20:15;3.53;;;1.02;;
48789;SDS011;41718;51.980;5.734;2022-07-01T11:25:23;2.38;;;0.77;;
48789;SDS011;41718;51.980;5.734;2022-07-01T11:30:24;3.17;;;0.77;;
48789;SDS011;41718;51.980;5.734;2022-07-01T11:35:31;5.32;;;1.15;;
48789;SDS011;41718;51.980;5.734;2022-07-01T11:40:54;2.28;;;0.60;;
48789;SDS011;41718;51.980;5.734;2022-07-01T11:45:58;2.87;;;0.80;;
48789;SDS011;41718;51.980;5.734;2022-07-01T11:51:21;2.15;;;0.80;;
48789;SDS011;41718;51.980;5.734;2022-07-01T11:56:28;1.95;;;0.60;;
48789;SDS011;41718;51.980;5.734;2022-07-01T12:01:36;3.40;;;0.95;;
48789;SDS011;41718;51.980;5.734;2022-07-01T12:06:41;1.23;;;0.55;;
48789;SDS011;41718;51.980;5.734;2022-07-01T12:11:44;0.73;;;0.40;;
48789;SDS011;41718;51.980;5.734;2022-07-01T12:16:50;1.42;;;0.93;;
48789;SDS011;41718;51.980;5.734;2022-07-01T12:21:57;1.88;;;0.63;;
48789;SDS011;41718;51.980;5.734;2022-07-01T12:32:04;3.47;;;1.15;;
48789;SDS011;41718;51.980;5.734;2022-07-01T12:37:10;1.65;;;0.70;;
48789;SDS011;41718;51.980;5.734;2022-07-01T12:47:34;2.63;;;1.10;;
48789;SDS011;41718;51.980;5.734;2022-07-01T12:52:40;1.98;;;0.88;;
48789;SDS011;41718;51.980;5.734;2022-07-01T12:57:57;1.08;;;0.95;;
48789;SDS011;41718;51.980;5.734;2022-07-01T13:03:03;2.50;;;1.15;;
48789;SDS011;41718;51.980;5.734;2022-07-01T13:08:06;2.70;;;1.00;;
48789;SDS011;41718;51.980;5.734;2022-07-01T13:13:09;3.13;;;1.40;;
48789;SDS011;41718;51.980;5.734;2022-07-01T13:18:11;3.15;;;1.15;;
48789;SDS011;41718;51.980;5.734;2022-07-01T13:23:17;2.28;;;0.90;;
48789;SDS011;41718;51.980;5.734;2022-07-01T13:28:19;2.38;;;0.68;;
48789;SDS011;41718;51.980;5.734;2022-07-01T13:33:24;2.38;;;0.52;;
48789;SDS011;41718;51.980;5.734;2022-07-01T13:38:25;1.85;;;0.60;;
48789;SDS011;41718;51.980;5.734;2022-07-01T13:43:27;5.68;;;1.25;;
48789;SDS011;41718;51.980;5.734;2022-07-01T13:48:29;2.88;;;0.70;;
48789;SDS011;41718;51.980;5.734;2022-07-01T13:53:36;2.13;;;0.70;;
48789;SDS011;41718;51.980;5.734;2022-07-01T13:58:38;2.55;;;0.70;;
48789;SDS011;41718;51.980;5.734;2022-07-01T14:08:44;1.45;;;0.82;;
48789;SDS011;41718;51.980;5.734;2022-07-01T14:13:46;3.17;;;0.95;;
48789;SDS011;41718;51.980;5.734;2022-07-01T14:18:48;1.20;;;0.70;;
48789;SDS011;41718;51.980;5.734;2022-07-01T14:23:52;1.38;;;0.52;;
48789;SDS011;41718;51.980;5.734;2022-07-01T14:28:56;1.83;;;0.47;;
48789;SDS011;41718;51.980;5.734;2022-07-01T14:33:58;2.22;;;0.73;;
48789;SDS011;41718;51.980;5.734;2022-07-01T14:38:59;1.90;;;0.93;;
48789;SDS011;41718;51.980;5.734;2022-07-01T14:44:01;3.78;;;1.23;;
48789;SDS011;41718;51.980;5.734;2022-07-01T14:49:02;1.95;;;0.60;;
48789;SDS011;41718;51.980;5.734;2022-07-01T14:54:04;3.20;;;1.08;;
48789;SDS011;41718;51.980;5.734;2022-07-01T14:59:06;8.63;;;1.35;;
48789;SDS011;41718;51.980;5.734;2022-07-01T15:09:12;3.15;;;1.70;;
48789;SDS011;41718;51.980;5.734;2022-07-01T15:14:13;4.93;;;1.00;;
48789;SDS011;41718;51.980;5.734;2022-07-01T15:19:16;2.78;;;1.38;;
48789;SDS011;41718;51.980;5.734;2022-07-01T15:24:18;3.95;;;1.30;;
48789;SDS011;41718;51.980;5.734;2022-07-01T15:29:19;2.10;;;0.93;;
48789;SDS011;41718;51.980;5.734;2022-07-01T15:34:23;4.88;;;1.70;;
48789;SDS011;41718;51.980;5.734;2022-07-01T15:39:28;3.05;;;0.93;;
48789;SDS011;41718;51.980;5.734;2022-07-01T15:44:33;1.50;;;1.10;;
48789;SDS011;41718;51.980;5.734;2022-07-01T15:54:36;4.60;;;1.33;;
48789;SDS011;41718;51.980;5.734;2022-07-01T15:59:38;4.53;;;1.40;;
48789;SDS011;41718;51.980;5.734;2022-07-01T16:04:40;2.80;;;1.02;;
48789;SDS011;41718;51.980;5.734;2022-07-01T16:09:46;6.03;;;1.30;;
48789;SDS011;41718;51.980;5.734;2022-07-01T16:15:00;2.08;;;0.77;;
48789;SDS011;41718;51.980;5.734;2022-07-01T16:20:06;1.48;;;0.80;;
48789;SDS011;41718;51.980;5.734;2022-07-01T16:25:09;2.55;;;0.70;;
48789;SDS011;41718;51.980;5.734;2022-07-01T16:30:13;3.17;;;1.17;;
48789;SDS011;41718;51.980;5.734;2022-07-01T16:35:15;2.47;;;1.13;;
48789;SDS011;41718;51.980;5.734;2022-07-01T16:40:19;2.67;;;1.13;;
48789;SDS011;41718;51.980;5.734;2022-07-01T16:45:30;2.13;;;0.95;;
48789;SDS011;41718;51.980;5.734;2022-07-01T16:50:40;1.83;;;0.60;;
48789;SDS011;41718;51.980;5.734;2022-07-01T16:55:47;4.45;;;1.05;;
48789;SDS011;41718;51.980;5.734;2022-07-01T17:00:51;2.05;;;0.70;;
48789;SDS011;41718;51.980;5.734;2022-07-01T17:05:53;1.63;;;0.63;;
48789;SDS011;41718;51.980;5.734;2022-07-01T17:10:55;3.10;;;0.75;;
48789;SDS011;41718;51.980;5.734;2022-07-01T17:15:58;1.55;;;0.57;;
48789;SDS011;41718;51.980;5.734;2022-07-01T17:21:01;2.10;;;0.70;;
48789;SDS011;41718;51.980;5.734;2022-07-01T17:26:06;2.35;;;0.82;;
48789;SDS011;41718;51.980;5.734;2022-07-01T17:31:22;3.15;;;0.95;;
48789;SDS011;41718;51.980;5.734;2022-07-01T17:36:28;3.13;;;0.63;;
48789;SDS011;41718;51.980;5.734;2022-07-01T17:41:35;3.50;;;0.50;;
48789;SDS011;41718;51.980;5.734;2022-07-01T17:46:43;1.75;;;0.65;;
48789;SDS011;41718;51.980;5.734;2022-07-01T17:51:48;1.92;;;0.60;;
48789;SDS011;41718;51.980;5.734;2022-07-01T17:56:50;1.27;;;0.52;;
48789;SDS011;41718;51.980;5.734;2022-07-01T18:01:53;2.08;;;0.50;;
48789;SDS011;41718;51.980;5.734;2022-07-01T18:06:57;2.43;;;0.83;;
48789;SDS011;41718;51.980;5.734;2022-07-01T18:17:26;2.28;;;0.80;;
48789;SDS011;41718;51.980;5.734;2022-07-01T18:22:51;2.00;;;0.70;;
48789;SDS011;41718;51.980;5.734;2022-07-01T18:28:13;1.45;;;0.95;;
48789;SDS011;41718;51.980;5.734;2022-07-01T18:33:18;1.92;;;0.60;;
48789;SDS011;41718;51.980;5.734;2022-07-01T18:38:23;4.85;;;1.08;;
48789;SDS011;41718;51.980;5.734;2022-07-01T18:43:25;4.57;;;1.67;;
48789;SDS011;41718;51.980;5.734;2022-07-01T18:48:27;1.40;;;0.93;;
48789;SDS011;41718;51.980;5.734;2022-07-01T18:53:28;3.60;;;1.42;;
48789;SDS011;41718;51.980;5.734;2022-07-01T18:58:30;4.68;;;1.52;;
48789;SDS011;41718;51.980;5.734;2022-07-01T19:03:32;4.07;;;1.05;;
48789;SDS011;41718;51.980;5.734;2022-07-01T19:08:35;4.82;;;1.67;;
48789;SDS011;41718;51.980;5.734;2022-07-01T19:13:37;2.10;;;0.95;;
48789;SDS011;41718;51.980;5.734;2022-07-01T19:18:39;3.65;;;0.93;;
48789;SDS011;41718;51.980;5.734;2022-07-01T19:23:43;4.07;;;1.40;;
48789;SDS011;41718;51.980;5.734;2022-07-01T19:28:45;1.58;;;1.20;;
48789;SDS011;41718;51.980;5.734;2022-07-01T19:33:46;2.20;;;1.10;;
48789;SDS011;41718;51.980;5.734;2022-07-01T19:38:48;2.92;;;1.45;;
48789;SDS011;41718;51.980;5.734;2022-07-01T19:43:49;1.73;;;1.33;;
48789;SDS011;41718;51.980;5.734;2022-07-01T19:48:54;2.05;;;0.70;;
48789;SDS011;41718;51.980;5.734;2022-07-01T19:53:59;4.22;;;0.95;;
48789;SDS011;41718;51.980;5.734;2022-07-01T19:59:01;2.88;;;1.60;;
48789;SDS011;41718;51.980;5.734;2022-07-01T20:04:05;3.55;;;1.30;;
48789;SDS011;41718;51.980;5.734;2022-07-01T20:09:07;2.50;;;1.02;;
48789;SDS011;41718;51.980;5.734;2022-07-01T20:14:09;2.67;;;1.10;;
48789;SDS011;41718;51.980;5.734;2022-07-01T20:19:11;1.23;;;1.13;;
48789;SDS011;41718;51.980;5.734;2022-07-01T20:24:13;4.10;;;1.23;;
48789;SDS011;41718;51.980;5.734;2022-07-01T20:29:14;2.92;;;1.13;;
48789;SDS011;41718;51.980;5.734;2022-07-01T20:34:16;2.10;;;0.90;;
48789;SDS011;41718;51.980;5.734;2022-07-01T20:39:17;1.90;;;1.00;;
48789;SDS011;41718;51.980;5.734;2022-07-01T20:44:19;1.52;;;1.02;;
48789;SDS011;41718;51.980;5.734;2022-07-01T20:49:21;3.83;;;1.88;;
48789;SDS011;41718;51.980;5.734;2022-07-01T20:54:22;2.95;;;1.20;;
48789;SDS011;41718;51.980;5.734;2022-07-01T20:59:25;4.43;;;1.25;;
48789;SDS011;41718;51.980;5.734;2022-07-01T21:04:36;2.22;;;1.27;;
48789;SDS011;41718;51.980;5.734;2022-07-01T21:09:40;3.63;;;1.33;;
48789;SDS011;41718;51.980;5.734;2022-07-01T21:14:42;2.92;;;1.00;;
48789;SDS011;41718;51.980;5.734;2022-07-01T21:19:44;2.65;;;1.30;;
48789;SDS011;41718;51.980;5.734;2022-07-01T21:24:45;1.75;;;1.00;;
48789;SDS011;41718;51.980;5.734;2022-07-01T21:29:47;2.42;;;1.08;;
48789;SDS011;41718;51.980;5.734;2022-07-01T21:34:49;2.80;;;1.20;;
48789;SDS011;41718;51.980;5.734;2022-07-01T21:39:52;1.67;;;1.30;;
48789;SDS011;41718;51.980;5.734;2022-07-01T21:44:54;3.97;;;1.77;;
48789;SDS011;41718;51.980;5.734;2022-07-01T21:49:56;5.50;;;1.20;;
48789;SDS011;41718;51.980;5.734;2022-07-01T21:55:00;1.88;;;1.70;;
48789;SDS011;41718;51.980;5.734;2022-07-01T22:00:13;3.92;;;1.45;;
48789;SDS011;41718;51.980;5.734;2022-07-01T22:05:22;4.25;;;1.98;;
48789;SDS011;41718;51.980;5.734;2022-07-01T22:10:48;5.00;;;2.03;;
48789;SDS011;41718;51.980;5.734;2022-07-01T22:15:51;5.10;;;1.70;;
48789;SDS011;41718;51.980;5.734;2022-07-01T22:20:56;3.95;;;2.08;;
48789;SDS011;41718;51.980;5.734;2022-07-01T22:25:58;4.18;;;1.85;;
48789;SDS011;41718;51.980;5.734;2022-07-01T22:31:00;2.47;;;1.65;;
48789;SDS011;41718;51.980;5.734;2022-07-01T22:36:03;5.45;;;1.88;;
48789;SDS011;41718;51.980;5.734;2022-07-01T22:41:05;3.30;;;1.85;;
48789;SDS011;41718;51.980;5.734;2022-07-01T22:46:14;4.80;;;1.80;;
48789;SDS011;41718;51.980;5.734;2022-07-01T22:51:38;5.20;;;2.38;;
48789;SDS011;41718;51.980;5.734;2022-07-01T22:57:02;3.50;;;1.70;;
48789;SDS011;41718;51.980;5.734;2022-07-01T23:02:04;2.83;;;1.52;;
48789;SDS011;41718;51.980;5.734;2022-07-01T23:07:11;3.03;;;2.20;;
48789;SDS011;41718;51.980;5.734;2022-07-01T23:12:24;2.90;;;2.00;;
48789;SDS011;41718;51.980;5.734;2022-07-01T23:17:37;2.53;;;1.70;;
48789;SDS011;41718;51.980;5.734;2022-07-01T23:22:41;3.88;;;2.05;;
48789;SDS011;41718;51.980;5.734;2022-07-01T23:27:46;3.63;;;2.15;;
48789;SDS011;41718;51.980;5.734;2022-07-01T23:32:50;2.28;;;1.92;;
48789;SDS011;41718;51.980;5.734;2022-07-01T23:37:53;5.82;;;2.58;;
48789;SDS011;41718;51.980;5.734;2022-07-01T23:42:57;3.17;;;2.17;;
48789;SDS011;41718;51.980;5.734;2022-07-01T23:47:59;3.45;;;2.22;;
48789;SDS011;41718;51.980;5.734;2022-07-01T23:53:01;2.55;;;2.03;;
48789;SDS011;41718;51.980;5.734;2022-07-01T23:58:02;2.17;;;1.80;;
